sensor_id;sensor_type;location;lat;lon;timestamp;pressure;altitude;pressure_sealevel;temperature;humidity
49835;BME280;35729;52.090;13.162;2023-04-19T00:01:13;102138.44;;;6.31;78.91
49835;BME280;35729;52.090;13.162;2023-04-19T00:03:44;102139.25;;;6.28;78.77
49835;BME280;35729;52.090;13.162;2023-04-19T00:06:13;102136.59;;;6.27;78.79
49835;BME280;35729;52.090;13.162;2023-04-19T00:08:42;102132.25;;;6.26;78.76
49835;BME280;35729;52.090;13.162;2023-04-19T00:11:10;102132.19;;;6.24;77.72
49835;BME280;35729;52.090;13.162;2023-04-19T00:13:39;102128.63;;;6.19;76.79
49835;BME280;35729;52.090;13.162;2023-04-19T00:16:07;102126.00;;;6.16;77.43
49835;BME280;35729;52.090;13.162;2023-04-19T00:18:36;102123.31;;;6.13;76.69
49835;BME280;35729;52.090;13.162;2023-04-19T00:21:07;102121.56;;;6.12;77.37
49835;BME280;35729;52.090;13.162;2023-04-19T00:23:36;102121.56;;;6.12;76.80
49835;BME280;35729;52.090;13.162;2023-04-19T00:26:04;102115.44;;;6.10;76.11
49835;BME280;35729;52.090;13.162;2023-04-19T00:28:33;102119.78;;;6.09;76.48
49835;BME280;35729;52.090;13.162;2023-04-19T00:31:01;102117.13;;;6.08;76.12
49835;BME280;35729;52.090;13.162;2023-04-19T00:33:31;102116.25;;;6.06;75.92
49835;BME280;35729;52.090;13.162;2023-04-19T00:36:00;102114.50;;;6.06;76.01
49835;BME280;35729;52.090;13.162;2023-04-19T00:38:31;102109.25;;;6.03;74.33
49835;BME280;35729;52.090;13.162;2023-04-19T00:40:59;102107.50;;;6.03;75.44
49835;BME280;35729;52.090;13.162;2023-04-19T00:43:28;102105.75;;;6.02;74.37
49835;BME280;35729;52.090;13.162;2023-04-19T00:45:56;102105.72;;;5.99;74.47
49835;BME280;35729;52.090;13.162;2023-04-19T00:48:25;102109.16;;;5.98;74.74
49835;BME280;35729;52.090;13.162;2023-04-19T00:50:54;102108.19;;;5.96;74.35
49835;BME280;35729;52.090;13.162;2023-04-19T00:53:22;102101.25;;;5.95;74.33
49835;BME280;35729;52.090;13.162;2023-04-19T00:55:54;102106.41;;;5.94;73.92
49835;BME280;35729;52.090;13.162;2023-04-19T00:58:25;102106.47;;;5.95;74.32
49835;BME280;35729;52.090;13.162;2023-04-19T01:00:54;102102.94;;;5.93;73.04
49835;BME280;35729;52.090;13.162;2023-04-19T01:03:23;102099.41;;;5.91;73.44
49835;BME280;35729;52.090;13.162;2023-04-19T01:05:51;102103.78;;;5.92;72.47
49835;BME280;35729;52.090;13.162;2023-04-19T01:08:20;102095.94;;;5.89;72.99
49835;BME280;35729;52.090;13.162;2023-04-19T01:10:48;102091.59;;;5.90;72.98
49835;BME280;35729;52.090;13.162;2023-04-19T01:13:19;102092.44;;;5.90;72.40
49835;BME280;35729;52.090;13.162;2023-04-19T01:15:48;102094.25;;;5.93;72.37
49835;BME280;35729;52.090;13.162;2023-04-19T01:18:16;102098.66;;;5.95;73.31
49835;BME280;35729;52.090;13.162;2023-04-19T01:20:46;102101.25;;;5.95;72.69
49835;BME280;35729;52.090;13.162;2023-04-19T01:23:17;102091.69;;;5.96;72.07
49835;BME280;35729;52.090;13.162;2023-04-19T01:25:45;102087.34;;;5.96;72.60
49835;BME280;35729;52.090;13.162;2023-04-19T01:28:14;102088.22;;;5.95;71.82
49835;BME280;35729;52.090;13.162;2023-04-19T01:30:43;102096.91;;;5.96;72.06
49835;BME280;35729;52.090;13.162;2023-04-19T01:33:11;102092.53;;;5.95;71.36
49835;BME280;35729;52.090;13.162;2023-04-19T01:35:40;102089.91;;;5.93;70.97
49835;BME280;35729;52.090;13.162;2023-04-19T01:38:08;102084.69;;;5.92;70.53
49835;BME280;35729;52.090;13.162;2023-04-19T01:40:39;102084.63;;;5.90;69.85
49835;BME280;35729;52.090;13.162;2023-04-19T01:43:11;102081.97;;;5.87;69.31
49835;BME280;35729;52.090;13.162;2023-04-19T01:45:40;102087.16;;;5.85;69.75
49835;BME280;35729;52.090;13.162;2023-04-19T01:48:08;102082.78;;;5.83;68.76
49835;BME280;35729;52.090;13.162;2023-04-19T01:50:36;102076.66;;;5.81;67.39
49835;BME280;35729;52.090;13.162;2023-04-19T01:53:05;102082.78;;;5.83;68.09
49835;BME280;35729;52.090;13.162;2023-04-19T01:55:33;102078.41;;;5.82;64.47
49835;BME280;35729;52.090;13.162;2023-04-19T01:58:04;102074.97;;;5.83;67.21
49835;BME280;35729;52.090;13.162;2023-04-19T02:00:34;102073.22;;;5.83;67.60
49835;BME280;35729;52.090;13.162;2023-04-19T02:03:02;102071.53;;;5.84;66.38
49835;BME280;35729;52.090;13.162;2023-04-19T02:05:31;102068.88;;;5.82;66.06
49835;BME280;35729;52.090;13.162;2023-04-19T02:08:00;102068.84;;;5.81;66.93
49835;BME280;35729;52.090;13.162;2023-04-19T02:10:29;102069.69;;;5.80;66.33
49835;BME280;35729;52.090;13.162;2023-04-19T02:12:57;102068.78;;;5.78;66.09
49835;BME280;35729;52.090;13.162;2023-04-19T02:15:28;102064.34;;;5.74;65.15
49835;BME280;35729;52.090;13.162;2023-04-19T02:17:57;102070.44;;;5.73;65.96
49835;BME280;35729;52.090;13.162;2023-04-19T02:20:26;102067.78;;;5.71;65.73
49835;BME280;35729;52.090;13.162;2023-04-19T02:22:55;102069.50;;;5.70;64.81
49835;BME280;35729;52.090;13.162;2023-04-19T02:25:24;102070.31;;;5.66;64.47
49835;BME280;35729;52.090;13.162;2023-04-19T02:27:52;102076.28;;;5.62;64.57
49835;BME280;35729;52.090;13.162;2023-04-19T02:30:21;102075.38;;;5.60;64.67
49835;BME280;35729;52.090;13.162;2023-04-19T02:32:52;102070.09;;;5.55;63.45
49835;BME280;35729;52.090;13.162;2023-04-19T02:35:23;102073.50;;;5.53;64.65
49835;BME280;35729;52.090;13.162;2023-04-19T02:37:51;102072.56;;;5.49;64.38
49835;BME280;35729;52.090;13.162;2023-04-19T02:40:20;102069.91;;;5.46;64.98
49835;BME280;35729;52.090;13.162;2023-04-19T02:42:50;102072.44;;;5.43;64.85
49835;BME280;35729;52.090;13.162;2023-04-19T02:45:18;102067.16;;;5.40;64.99
49835;BME280;35729;52.090;13.162;2023-04-19T02:47:47;102074.91;;;5.37;64.68
49835;BME280;35729;52.090;13.162;2023-04-19T02:50:18;102063.50;;;5.30;65.18
49835;BME280;35729;52.090;13.162;2023-04-19T02:52:46;102060.78;;;5.26;65.47
49835;BME280;35729;52.090;13.162;2023-04-19T02:55:15;102064.19;;;5.23;65.41
49835;BME280;35729;52.090;13.162;2023-04-19T02:57:43;102062.34;;;5.17;64.86
49835;BME280;35729;52.090;13.162;2023-04-19T03:00:13;102063.94;;;5.11;65.04
49835;BME280;35729;52.090;13.162;2023-04-19T03:02:42;102069.84;;;5.03;65.11
49835;BME280;35729;52.090;13.162;2023-04-19T03:05:11;102060.97;;;4.95;65.08
49835;BME280;35729;52.090;13.162;2023-04-19T03:07:42;102063.41;;;4.87;64.86
49835;BME280;35729;52.090;13.162;2023-04-19T03:10:10;102059.81;;;4.82;65.53
49835;BME280;35729;52.090;13.162;2023-04-19T03:12:39;102062.25;;;4.75;65.31
49835;BME280;35729;52.090;13.162;2023-04-19T03:15:09;102056.88;;;4.67;65.48
49835;BME280;35729;52.090;13.162;2023-04-19T03:17:38;102054.13;;;4.61;65.97
49835;BME280;35729;52.090;13.162;2023-04-19T03:20:07;102051.34;;;4.53;65.24
49835;BME280;35729;52.090;13.162;2023-04-19T03:22:37;102048.59;;;4.47;65.67
49835;BME280;35729;52.090;13.162;2023-04-19T03:25:08;102045.88;;;4.42;65.73
49835;BME280;35729;52.090;13.162;2023-04-19T03:27:38;102046.63;;;4.36;66.36
49835;BME280;35729;52.090;13.162;2023-04-19T03:30:07;102044.72;;;4.31;66.63
49835;BME280;35729;52.090;13.162;2023-04-19T03:32:36;102038.50;;;4.24;66.75
49835;BME280;35729;52.090;13.162;2023-04-19T03:35:05;102037.47;;;4.17;66.79
49835;BME280;35729;52.090;13.162;2023-04-19T03:37:34;102039.94;;;4.13;67.20
49835;BME280;35729;52.090;13.162;2023-04-19T03:40:02;102045.03;;;4.08;67.31
49835;BME280;35729;52.090;13.162;2023-04-19T03:42:33;102050.13;;;4.03;67.31
49835;BME280;35729;52.090;13.162;2023-04-19T03:45:03;102045.66;;;3.99;67.76
49835;BME280;35729;52.090;13.162;2023-04-19T03:47:31;102042.94;;;3.93;68.11
49835;BME280;35729;52.090;13.162;2023-04-19T03:50:00;102045.38;;;3.88;68.06
49835;BME280;35729;52.090;13.162;2023-04-19T03:52:28;102047.84;;;3.84;68.04
49835;BME280;35729;52.090;13.162;2023-04-19T03:54:57;102040.00;;;3.81;67.86
49835;BME280;35729;52.090;13.162;2023-04-19T03:57:35;102040.78;;;3.78;68.00
49835;BME280;35729;52.090;13.162;2023-04-19T04:00:04;102046.69;;;3.72;68.15
49835;BME280;35729;52.090;13.162;2023-04-19T04:02:36;102031.88;;;3.68;68.72
49835;BME280;35729;52.090;13.162;2023-04-19T04:05:05;102037.84;;;3.66;68.93
49835;BME280;35729;52.090;13.162;2023-04-19T04:07:34;102034.31;;;3.64;69.27
49835;BME280;35729;52.090;13.162;2023-04-19T04:10:03;102033.34;;;3.60;69.49
49835;BME280;35729;52.090;13.162;2023-04-19T04:12:31;102034.13;;;3.56;69.61
49835;BME280;35729;52.090;13.162;2023-04-19T04:15:03;102034.91;;;3.53;69.85
49835;BME280;35729;52.090;13.162;2023-04-19T04:17:32;102032.28;;;3.52;69.97
49835;BME280;35729;52.090;13.162;2023-04-19T04:20:00;102033.94;;;3.50;70.24
49835;BME280;35729;52.090;13.162;2023-04-19T04:22:30;102032.19;;;3.49;70.52
49835;BME280;35729;52.090;13.162;2023-04-19T04:24:58;102029.53;;;3.47;70.62
49835;BME280;35729;52.090;13.162;2023-04-19T04:27:33;102029.50;;;3.46;70.71
49835;BME280;35729;52.090;13.162;2023-04-19T04:30:06;102032.91;;;3.43;70.96
49835;BME280;35729;52.090;13.162;2023-04-19T04:32:35;102039.81;;;3.42;71.33
49835;BME280;35729;52.090;13.162;2023-04-19T04:35:07;102045.84;;;3.41;71.30
49835;BME280;35729;52.090;13.162;2023-04-19T04:37:36;102041.47;;;3.40;71.77
49835;BME280;35729;52.090;13.162;2023-04-19T04:40:06;102036.28;;;3.40;71.91
49835;BME280;35729;52.090;13.162;2023-04-19T04:42:35;102038.78;;;3.37;71.75
49835;BME280;35729;52.090;13.162;2023-04-19T04:45:07;102041.28;;;3.34;71.78
49835;BME280;35729;52.090;13.162;2023-04-19T04:47:37;102037.72;;;3.31;72.22
49835;BME280;35729;52.090;13.162;2023-04-19T04:50:07;102039.41;;;3.29;72.36
49835;BME280;35729;52.090;13.162;2023-04-19T04:52:36;102035.00;;;3.26;72.27
49835;BME280;35729;52.090;13.162;2023-04-19T04:55:05;102037.50;;;3.23;72.01
49835;BME280;35729;52.090;13.162;2023-04-19T04:57:34;102037.50;;;3.23;72.25
49835;BME280;35729;52.090;13.162;2023-04-19T05:00:06;102032.25;;;3.20;72.51
49835;BME280;35729;52.090;13.162;2023-04-19T05:02:37;102034.84;;;3.20;72.59
49835;BME280;35729;52.090;13.162;2023-04-19T05:05:06;102033.91;;;3.18;72.82
49835;BME280;35729;52.090;13.162;2023-04-19T05:07:35;102033.91;;;3.18;73.21
49835;BME280;35729;52.090;13.162;2023-04-19T05:10:05;102029.50;;;3.15;73.16
49835;BME280;35729;52.090;13.162;2023-04-19T05:12:35;102026.94;;;3.17;73.51
49835;BME280;35729;52.090;13.162;2023-04-19T05:15:07;102032.13;;;3.17;73.69
49835;BME280;35729;52.090;13.162;2023-04-19T05:17:36;102026.16;;;3.19;73.88
49835;BME280;35729;52.090;13.162;2023-04-19T05:20:06;102032.28;;;3.21;74.41
49835;BME280;35729;52.090;13.162;2023-04-19T05:22:34;102025.41;;;3.23;74.58
49835;BME280;35729;52.090;13.162;2023-04-19T05:25:04;102025.47;;;3.25;74.73
49835;BME280;35729;52.090;13.162;2023-04-19T05:27:34;102024.69;;;3.28;75.02
49835;BME280;35729;52.090;13.162;2023-04-19T05:30:03;102024.72;;;3.29;75.15
49835;BME280;35729;52.090;13.162;2023-04-19T05:32:34;102024.78;;;3.32;75.70
49835;BME280;35729;52.090;13.162;2023-04-19T05:35:03;102001.50;;;3.34;75.90
49835;BME280;35729;52.090;13.162;2023-04-19T05:37:32;102007.66;;;3.37;75.97
49835;BME280;35729;52.090;13.162;2023-04-19T05:40:01;102006.91;;;3.41;76.50
49835;BME280;35729;52.090;13.162;2023-04-19T05:42:30;102003.56;;;3.46;76.54
49835;BME280;35729;52.090;13.162;2023-04-19T05:44:59;102005.41;;;3.50;76.80
49835;BME280;35729;52.090;13.162;2023-04-19T05:47:27;102005.50;;;3.53;76.70
49835;BME280;35729;52.090;13.162;2023-04-19T05:49:58;102006.50;;;3.58;77.38
49835;BME280;35729;52.090;13.162;2023-04-19T05:52:27;102006.59;;;3.63;76.77
49835;BME280;35729;52.090;13.162;2023-04-19T05:54:55;102002.47;;;3.69;77.12
49835;BME280;35729;52.090;13.162;2023-04-19T05:57:23;102002.66;;;3.75;77.12
49835;BME280;35729;52.090;13.162;2023-04-19T05:59:52;101988.03;;;3.79;76.86
49835;BME280;35729;52.090;13.162;2023-04-19T06:02:20;101990.69;;;3.82;76.87
49835;BME280;35729;52.090;13.162;2023-04-19T06:04:49;101986.47;;;3.86;76.65
49835;BME280;35729;52.090;13.162;2023-04-19T06:07:21;101975.31;;;3.90;76.73
49835;BME280;35729;52.090;13.162;2023-04-19T06:09:49;101978.03;;;3.95;76.55
49835;BME280;35729;52.090;13.162;2023-04-19T06:12:18;101982.50;;;4.00;76.58
49835;BME280;35729;52.090;13.162;2023-04-19T06:14:46;101975.66;;;4.04;76.73
49835;BME280;35729;52.090;13.162;2023-04-19T06:17:15;101981.88;;;4.11;76.65
49835;BME280;35729;52.090;13.162;2023-04-19T06:19:48;101982.03;;;4.17;76.73
49835;BME280;35729;52.090;13.162;2023-04-19T06:22:16;101969.19;;;4.23;76.25
49835;BME280;35729;52.090;13.162;2023-04-19T06:24:47;101972.78;;;4.28;75.23
49835;BME280;35729;52.090;13.162;2023-04-19T06:27:16;101975.47;;;4.31;75.80
49835;BME280;35729;52.090;13.162;2023-04-19T06:29:44;101966.06;;;4.36;75.77
49835;BME280;35729;52.090;13.162;2023-04-19T06:32:13;101976.56;;;4.41;75.87
49835;BME280;35729;52.090;13.162;2023-04-19T06:34:41;101969.69;;;4.45;75.33
49835;BME280;35729;52.090;13.162;2023-04-19T06:37:10;101972.44;;;4.51;75.36
49835;BME280;35729;52.090;13.162;2023-04-19T06:39:38;101984.69;;;4.55;74.22
49835;BME280;35729;52.090;13.162;2023-04-19T06:42:09;101972.63;;;4.59;74.30
49835;BME280;35729;52.090;13.162;2023-04-19T06:44:38;101965.78;;;4.62;74.29
49835;BME280;35729;52.090;13.162;2023-04-19T06:47:06;101966.75;;;4.67;74.68
49835;BME280;35729;52.090;13.162;2023-04-19T06:49:35;101959.94;;;4.72;73.67
49835;BME280;35729;52.090;13.162;2023-04-19T06:52:03;101957.47;;;4.79;74.07
49835;BME280;35729;52.090;13.162;2023-04-19T06:54:32;101958.44;;;4.84;74.12
49835;BME280;35729;52.090;13.162;2023-04-19T06:57:00;101961.19;;;4.90;74.07
49835;BME280;35729;52.090;13.162;2023-04-19T06:59:32;101959.59;;;4.97;72.84
49835;BME280;35729;52.090;13.162;2023-04-19T07:02:04;101953.66;;;5.04;73.35
49835;BME280;35729;52.090;13.162;2023-04-19T07:04:33;101945.13;;;5.10;73.14
49835;BME280;35729;52.090;13.162;2023-04-19T07:07:01;101940.03;;;5.16;72.78
49835;BME280;35729;52.090;13.162;2023-04-19T07:09:30;101949.69;;;5.23;72.38
49835;BME280;35729;52.090;13.162;2023-04-19T07:11:58;101931.66;;;5.31;71.59
49835;BME280;35729;52.090;13.162;2023-04-19T07:14:27;101936.13;;;5.38;70.42
49835;BME280;35729;52.090;13.162;2023-04-19T07:16:58;101935.38;;;5.45;70.81
49835;BME280;35729;52.090;13.162;2023-04-19T07:19:26;101928.56;;;5.52;69.81
49835;BME280;35729;52.090;13.162;2023-04-19T07:21:55;101930.44;;;5.59;69.02
49835;BME280;35729;52.090;13.162;2023-04-19T07:24:24;101925.34;;;5.65;70.07
49835;BME280;35729;52.090;13.162;2023-04-19T07:26:54;101928.06;;;5.73;69.48
49835;BME280;35729;52.090;13.162;2023-04-19T07:29:23;101925.59;;;5.81;68.63
49835;BME280;35729;52.090;13.162;2023-04-19T07:31:51;101928.34;;;5.90;66.47
49835;BME280;35729;52.090;13.162;2023-04-19T07:34:23;101914.63;;;5.99;67.92
49835;BME280;35729;52.090;13.162;2023-04-19T07:36:51;101917.38;;;6.07;66.42
49835;BME280;35729;52.090;13.162;2023-04-19T07:39:20;101915.75;;;6.13;65.97
49835;BME280;35729;52.090;13.162;2023-04-19T07:41:48;101919.31;;;6.20;65.97
49835;BME280;35729;52.090;13.162;2023-04-19T07:44:17;101902.03;;;6.27;64.16
49835;BME280;35729;52.090;13.162;2023-04-19T07:46:45;101895.19;;;6.33;66.37
49835;BME280;35729;52.090;13.162;2023-04-19T07:49:14;101909.19;;;6.42;65.14
49835;BME280;35729;52.090;13.162;2023-04-19T07:51:45;101898.84;;;6.48;63.77
49835;BME280;35729;52.090;13.162;2023-04-19T07:54:14;101905.91;;;6.55;64.00
49835;BME280;35729;52.090;13.162;2023-04-19T07:56:44;101895.59;;;6.64;63.76
49835;BME280;35729;52.090;13.162;2023-04-19T07:59:13;101892.22;;;6.72;64.20
49835;BME280;35729;52.090;13.162;2023-04-19T08:01:48;101886.25;;;6.80;62.03
49835;BME280;35729;52.090;13.162;2023-04-19T08:04:17;101891.56;;;6.90;61.81
49835;BME280;35729;52.090;13.162;2023-04-19T08:06:49;101894.28;;;6.99;59.04
49835;BME280;35729;52.090;13.162;2023-04-19T08:09:18;101892.63;;;7.06;58.56
49835;BME280;35729;52.090;13.162;2023-04-19T08:11:46;101890.94;;;7.11;59.16
49835;BME280;35729;52.090;13.162;2023-04-19T08:14:15;101893.63;;;7.20;58.33
49835;BME280;35729;52.090;13.162;2023-04-19T08:16:43;101880.66;;;7.26;57.34
49835;BME280;35729;52.090;13.162;2023-04-19T08:19:12;101879.88;;;7.33;56.71
49835;BME280;35729;52.090;13.162;2023-04-19T08:21:40;101873.81;;;7.38;56.98
49835;BME280;35729;52.090;13.162;2023-04-19T08:24:11;101870.41;;;7.45;57.05
49835;BME280;35729;52.090;13.162;2023-04-19T08:26:40;101864.38;;;7.52;58.11
49835;BME280;35729;52.090;13.162;2023-04-19T08:29:08;101867.06;;;7.61;55.61
49835;BME280;35729;52.090;13.162;2023-04-19T08:31:37;101859.28;;;7.69;55.59
49835;BME280;35729;52.090;13.162;2023-04-19T08:34:05;101861.09;;;7.76;55.81
49835;BME280;35729;52.090;13.162;2023-04-19T08:36:34;101835.91;;;7.88;54.56
49835;BME280;35729;52.090;13.162;2023-04-19T08:39:03;101845.56;;;7.95;55.09
49835;BME280;35729;52.090;13.162;2023-04-19T08:41:34;101845.56;;;8.01;52.87
49835;BME280;35729;52.090;13.162;2023-04-19T08:44:03;101833.44;;;8.09;54.43
49835;BME280;35729;52.090;13.162;2023-04-19T08:46:33;101846.56;;;8.14;52.42
49835;BME280;35729;52.090;13.162;2023-04-19T08:49:03;101832.63;;;8.18;51.92
49835;BME280;35729;52.090;13.162;2023-04-19T08:51:33;101832.66;;;8.27;52.24
49835;BME280;35729;52.090;13.162;2023-04-19T08:54:03;101833.59;;;8.36;52.81
49835;BME280;35729;52.090;13.162;2023-04-19T08:56:35;101831.88;;;8.42;50.02
49835;BME280;35729;52.090;13.162;2023-04-19T08:59:04;101841.53;;;8.51;51.21
49835;BME280;35729;52.090;13.162;2023-04-19T09:01:32;101834.56;;;8.58;50.18
49835;BME280;35729;52.090;13.162;2023-04-19T09:04:02;101849.44;;;8.63;49.78
49835;BME280;35729;52.090;13.162;2023-04-19T09:06:34;101834.63;;;8.72;50.13
49835;BME280;35729;52.090;13.162;2023-04-19T09:09:16;101825.94;;;8.80;49.56
49835;BME280;35729;52.090;13.162;2023-04-19T09:11:47;101812.88;;;8.91;49.83
49835;BME280;35729;52.090;13.162;2023-04-19T09:14:18;101814.66;;;9.00;50.23
49835;BME280;35729;52.090;13.162;2023-04-19T09:16:47;101829.50;;;9.04;50.38
49835;BME280;35729;52.090;13.162;2023-04-19T09:19:16;101824.28;;;9.09;48.60
49835;BME280;35729;52.090;13.162;2023-04-19T09:21:45;101805.06;;;9.16;50.58
49835;BME280;35729;52.090;13.162;2023-04-19T09:24:16;101800.72;;;9.26;51.62
49835;BME280;35729;52.090;13.162;2023-04-19T09:26:55;101796.34;;;9.37;49.90
49835;BME280;35729;52.090;13.162;2023-04-19T09:29:24;101791.13;;;9.48;51.62
49835;BME280;35729;52.090;13.162;2023-04-19T09:31:56;101787.63;;;9.60;51.21
49835;BME280;35729;52.090;13.162;2023-04-19T09:34:25;101784.13;;;9.72;50.41
49835;BME280;35729;52.090;13.162;2023-04-19T09:36:55;101777.13;;;9.77;51.21
49835;BME280;35729;52.090;13.162;2023-04-19T09:39:30;101779.72;;;9.82;49.99
49835;BME280;35729;52.090;13.162;2023-04-19T09:42:03;101774.44;;;9.89;50.86
49835;BME280;35729;52.090;13.162;2023-04-19T09:44:32;101768.34;;;9.95;50.56
49835;BME280;35729;52.090;13.162;2023-04-19T09:47:01;101749.09;;;10.01;50.64
49835;BME280;35729;52.090;13.162;2023-04-19T09:49:30;101747.31;;;10.09;50.77
49835;BME280;35729;52.090;13.162;2023-04-19T09:51:58;101745.53;;;10.17;47.67
49835;BME280;35729;52.090;13.162;2023-04-19T09:54:26;101751.63;;;10.25;48.46
49835;BME280;35729;52.090;13.162;2023-04-19T09:56:56;101740.25;;;10.36;49.09
49835;BME280;35729;52.090;13.162;2023-04-19T09:59:28;101739.31;;;10.48;48.88
49835;BME280;35729;52.090;13.162;2023-04-19T10:01:58;101738.38;;;10.59;49.49
49835;BME280;35729;52.090;13.162;2023-04-19T10:04:28;101736.56;;;10.71;49.41
49835;BME280;35729;52.090;13.162;2023-04-19T10:06:56;101733.00;;;10.78;47.17
49835;BME280;35729;52.090;13.162;2023-04-19T10:09:25;101742.63;;;10.81;46.80
49835;BME280;35729;52.090;13.162;2023-04-19T10:11:55;101726.84;;;10.82;46.01
49835;BME280;35729;52.090;13.162;2023-04-19T10:14:28;101736.50;;;10.82;47.13
49835;BME280;35729;52.090;13.162;2023-04-19T10:17:04;101719.88;;;10.80;47.58
49835;BME280;35729;52.090;13.162;2023-04-19T10:19:34;101715.47;;;10.80;47.23
49835;BME280;35729;52.090;13.162;2023-04-19T10:22:04;101718.97;;;10.84;46.25
49835;BME280;35729;52.090;13.162;2023-04-19T10:24:34;101711.91;;;10.92;46.98
49835;BME280;35729;52.090;13.162;2023-04-19T10:27:10;101709.25;;;10.98;45.71
49835;BME280;35729;52.090;13.162;2023-04-19T10:29:58;101702.13;;;11.11;44.82
49835;BME280;35729;52.090;13.162;2023-04-19T10:32:29;101703.75;;;11.26;46.14
49835;BME280;35729;52.090;13.162;2023-04-19T10:35:01;101706.25;;;11.40;46.14
49835;BME280;35729;52.090;13.162;2023-04-19T10:37:30;101699.09;;;11.54;47.31
49835;BME280;35729;52.090;13.162;2023-04-19T10:39:59;101696.34;;;11.65;46.27
49835;BME280;35729;52.090;13.162;2023-04-19T10:45:36;101699.88;;;11.61;43.03
49835;BME280;35729;52.090;13.162;2023-04-19T10:48:05;101690.41;;;11.46;42.78
49835;BME280;35729;52.090;13.162;2023-04-19T10:50:57;101701.06;;;11.34;43.57
49835;BME280;35729;52.090;13.162;2023-04-19T10:53:42;101698.56;;;11.20;43.26
49835;BME280;35729;52.090;13.162;2023-04-19T10:56:11;101695.97;;;11.15;44.58
49835;BME280;35729;52.090;13.162;2023-04-19T10:59:10;101680.25;;;11.09;44.69
49835;BME280;35729;52.090;13.162;2023-04-19T11:01:52;101687.22;;;11.15;46.22
49835;BME280;35729;52.090;13.162;2023-04-19T11:04:23;101697.59;;;11.25;44.94
49835;BME280;35729;52.090;13.162;2023-04-19T11:07:12;101680.88;;;11.34;46.08
49835;BME280;35729;52.090;13.162;2023-04-19T11:09:44;101676.47;;;11.39;45.93
49835;BME280;35729;52.090;13.162;2023-04-19T11:12:14;101678.13;;;11.48;46.34
49835;BME280;35729;52.090;13.162;2023-04-19T11:14:44;101664.91;;;11.57;46.58
49835;BME280;35729;52.090;13.162;2023-04-19T11:17:19;101668.28;;;11.67;44.93
49835;BME280;35729;52.090;13.162;2023-04-19T11:19:54;101672.59;;;11.73;43.19
49835;BME280;35729;52.090;13.162;2023-04-19T11:22:32;101669.09;;;11.74;45.42
49835;BME280;35729;52.090;13.162;2023-04-19T11:25:04;101677.84;;;11.73;43.26
49835;BME280;35729;52.090;13.162;2023-04-19T11:27:33;101670.00;;;11.71;43.30
49835;BME280;35729;52.090;13.162;2023-04-19T11:30:03;101671.72;;;11.74;45.24
49835;BME280;35729;52.090;13.162;2023-04-19T11:32:35;101668.25;;;11.70;42.88
49835;BME280;35729;52.090;13.162;2023-04-19T11:35:06;101658.63;;;11.69;43.80
49835;BME280;35729;52.090;13.162;2023-04-19T11:37:36;101647.16;;;11.75;45.46
49835;BME280;35729;52.090;13.162;2023-04-19T11:40:06;101652.28;;;11.86;43.20
49835;BME280;35729;52.090;13.162;2023-04-19T11:42:35;101645.16;;;11.94;43.96
49835;BME280;35729;52.090;13.162;2023-04-19T11:45:04;101646.94;;;11.97;42.59
49835;BME280;35729;52.090;13.162;2023-04-19T11:47:45;101639.00;;;11.95;41.49
49835;BME280;35729;52.090;13.162;2023-04-19T11:50:30;101630.16;;;12.04;43.02
49835;BME280;35729;52.090;13.162;2023-04-19T11:52:59;101635.22;;;12.18;44.91
49835;BME280;35729;52.090;13.162;2023-04-19T11:55:31;101645.59;;;12.30;42.93
49835;BME280;35729;52.090;13.162;2023-04-19T11:58:00;101638.50;;;12.34;43.16
49835;BME280;35729;52.090;13.162;2023-04-19T12:00:29;101636.84;;;12.27;41.68
49835;BME280;35729;52.090;13.162;2023-04-19T12:03:01;101636.03;;;12.23;42.43
49835;BME280;35729;52.090;13.162;2023-04-19T12:05:30;101622.84;;;12.26;44.63
49835;BME280;35729;52.090;13.162;2023-04-19T12:08:03;101625.38;;;12.32;43.00
49835;BME280;35729;52.090;13.162;2023-04-19T12:10:33;101630.59;;;12.35;43.34
49835;BME280;35729;52.090;13.162;2023-04-19T12:13:15;101634.09;;;12.37;42.57
49835;BME280;35729;52.090;13.162;2023-04-19T12:15:45;101609.47;;;12.40;44.06
49835;BME280;35729;52.090;13.162;2023-04-19T12:18:17;101629.66;;;12.41;42.56
49835;BME280;35729;52.090;13.162;2023-04-19T12:20:46;101613.84;;;12.41;43.68
49835;BME280;35729;52.090;13.162;2023-04-19T12:23:16;101618.19;;;12.42;42.26
49835;BME280;35729;52.090;13.162;2023-04-19T12:25:46;101605.00;;;12.45;43.90
49835;BME280;35729;52.090;13.162;2023-04-19T12:28:22;101603.94;;;12.59;43.45
49835;BME280;35729;52.090;13.162;2023-04-19T12:30:57;101602.78;;;12.75;44.16
49835;BME280;35729;52.090;13.162;2023-04-19T12:33:28;101599.97;;;12.84;42.25
49835;BME280;35729;52.090;13.162;2023-04-19T12:35:57;101601.59;;;12.93;43.41
49835;BME280;35729;52.090;13.162;2023-04-19T12:38:25;101576.88;;;12.99;42.48
49835;BME280;35729;52.090;13.162;2023-04-19T12:40:53;101573.97;;;13.13;39.66
49835;BME280;35729;52.090;13.162;2023-04-19T12:43:22;101594.09;;;13.18;41.86
49835;BME280;35729;52.090;13.162;2023-04-19T12:45:51;101590.53;;;13.21;41.20
49835;BME280;35729;52.090;13.162;2023-04-19T12:48:19;101581.72;;;13.22;41.93
49835;BME280;35729;52.090;13.162;2023-04-19T12:50:50;101587.84;;;13.23;41.05
49835;BME280;35729;52.090;13.162;2023-04-19T12:53:19;101593.13;;;13.23;39.81
49835;BME280;35729;52.090;13.162;2023-04-19T12:55:48;101583.44;;;13.25;40.04
49835;BME280;35729;52.090;13.162;2023-04-19T12:58:17;101592.19;;;13.25;41.12
49835;BME280;35729;52.090;13.162;2023-04-19T13:00:46;101587.84;;;13.23;40.56
49835;BME280;35729;52.090;13.162;2023-04-19T13:03:14;101573.72;;;13.27;41.12
49835;BME280;35729;52.090;13.162;2023-04-19T13:05:43;101575.41;;;13.31;40.39